AirNav   Pilot Hours Calculator
 
 476 users online  

S48 Country Squire Airpark
Sandy, Oregon, USA

GOING TO SANDY?


FAA INFORMATION EFFECTIVE 15 AUGUST 2019

Location

FAA Identifier: S48
Lat/Long: 45-21-16.0000N 122-16-05.0000W
45-21.266667N 122-16.083333W
45.3544444,-122.2680556
(estimated)
Elevation: 1175 ft. / 358 m (estimated)
Variation: 19E (1985)
From city: 3 miles S of SANDY, OR
Time zone: UTC -7 (UTC -8 during Standard Time)
Zip code: 97055

Airport Operations

Airport use: Open to the public
Activation date: 08/1976
Control tower: no
ARTCC: SEATTLE CENTER
FSS: MC MINNVILLE FLIGHT SERVICE STATION
NOTAMs facility: MMV (NOTAM-D service available)
Attendance: IREG
Wind indicator: yes
Segmented circle: no
Landing fee: yes, OVERNIGHT TIEDOWN FEE AND LNDG FEE FOR NON BASED ACFT .

Airport Communications

CTAF: 122.9
WX ASOS at TTD (13 nm NW): 135.625 (503-492-2887)
WX ASOS at PDX (20 nm NW): PHONE (503) 493-7687

Nearby radio navigation aids

VOR radial/distance  VOR name  Freq  Var
BTGr129/27.2BATTLE GROUND VORTAC116.6021E
UBGr069/29.9NEWBERG VOR/DME117.4021E

 
NDB name  Hdg/Dist  Freq  Var  ID
BANKS101/36.735616EPND .--. -. -..

Airport Services

Parking: hangars and tiedowns
Airframe service: NONE
Powerplant service: NONE
Bottled oxygen: NONE
Bulk oxygen: NONE

Runway Information

Runway 7/25

Dimensions: 3095 x 32 ft. / 943 x 10 m
Surface: asphalt, in excellent condition
Weight bearing capacity: 
Single wheel: 7.0
Operational restrictions: RUNWAY MAGNETIC HEADING 080-260 DEGREES
RUNWAY 7  RUNWAY 25
Traffic pattern: leftleft
Markings: nonenone
Obstructions: none88 ft. tree, 930 ft. from runway, 8:1 slope to clear
RWY 25 +40-45 FT TREES FM RY END TO 200 FT - 90 FT L AND PRIVATE ROAD LEADING INTO AIRPORT.

Airport Ownership and Management from official FAA records

Ownership: Privately-owned
Owner: A. F. & H. C. SKIPPER
PO BOX 571
SANDY, OR 97055
Phone 503-668-6808
Manager: ARTHUR F. SKIPPER
PO BOX 571
SANDY, OR 97055
Phone 503-668-6808

Airport Operational Statistics

Aircraft based on the field: 27
Single engine airplanes: 26
Multi engine airplanes: 1
    
Aircraft operations: avg 38/week *
60% transient general aviation
40% local general aviation
* for 12-month period ending 31 July 2018

Additional Remarks

DEER ON AND IN VICINITY OF ARPT.
FOR CD CTC PORTLAND APCH AT 503-493-7545.

Instrument Procedures

There are no published instrument procedures at S48.

Some nearby airports with instrument procedures:

KTTD - Portland-Troutdale Airport (13 nm NW)
KPDX - Portland International Airport (20 nm NW)
KUAO - Aurora State Airport (22 nm W)
KVUO - Pearson Field Airport (23 nm NW)
KHIO - Portland-Hillsboro Airport (31 nm W)
 
Loc | Ops | Rwys | IFR | FBO | Links
Com | Nav | Svcs | Stats | Notes
Area around S48 (Country Squire Airpark)
 
Road maps at: MapQuest Bing Google
 
Aerial photo
WARNING: Photo may not be current or correct
Aerial photo of S48 (Country Squire Airpark)
Do you have a better or more recent aerial photo of Country Squire Airpark that you would like to share? If so, please send us your photo.

 
Sectional chart

 
Airport distance calculator
Flying to Country Squire Airpark? Find the distance to fly.

From to S48

Sunrise and sunset
Times for 18-Aug-2019
 Local
(UTC-7)
 Zulu
(UTC)
Morning civil twilight05:4312:43
Sunrise06:1513:15
Sunset20:1103:11
Evening civil twilight20:4303:43

Current date and time
Zulu (UTC)  19-Aug-2019 04:52:45
Local (UTC-7)  18-Aug-2019 21:52:45
 
METAR
KTTD 
13nm NW 
190353Z 00000KT 10SM CLR 21/13 A2985 RMK AO2 SLP107 T02110133
KPDX 
20nm NW 
190353Z 34005KT 10SM CLR 21/13 A2985 RMK AO2 SLP109 T02110133
KUAO 
22nm W 
190353Z AUTO 03005KT 10SM CLR 22/13 A2986 RMK AO2 SLP108 T02170133
KVUO 
22nm NW 
190353Z AUTO 33005KT 10SM CLR 21/13 A2985 RMK AO2 SLP108 T02060128
TAF
KTTD 
13nm NW 
181738Z 1818/1918 VRB03KT P6SM BKN015 OVC030 FM182100 32007KT P6SM SCT040 FM190300 31004KT P6SM FEW040 FM190900 VRB02KT P6SM BKN035 FM191200 VRB02KT P6SM BKN025 OVC035
KPDX 
20nm NW 
190310Z 1903/1924 34006KT P6SM FEW035 FM191000 VRB02KT P6SM BKN035 FM191300 VRB02KT P6SM BKN025 OVC035 FM191800 33004KT P6SM BKN050
NOTAMs
Click for the latest NOTAMs
NOTAMs are issued by the DoD/FAA and will open in a separate window not controlled by AirNav.

 

 
 

Would you like to see your business listed on this page?

 If your business provides an interesting product or service to pilots, flight crews, aircraft, or users of the Country Squire Airpark, you should consider listing it here.  To start the listing process, click on the button below
 
Add a business
 

Other Pages about Country Squire Airpark

Update a link
 
Copyright © AirNav, LLC. All rights reserved. Privacy Policy  Contact